createdAt,value
2019-01-15T00:00:14.489Z,979.93
2019-01-15T00:01:14.470Z,979.95
2019-01-15T00:02:14.467Z,979.94
2019-01-15T00:03:14.467Z,979.91
2019-01-15T00:04:14.453Z,979.93
2019-01-15T00:05:14.439Z,979.93
2019-01-15T00:06:14.438Z,979.95
2019-01-15T00:07:14.418Z,979.98
2019-01-15T00:08:14.430Z,980.02
2019-01-15T00:09:14.456Z,980.04
2019-01-15T00:10:14.363Z,980.01
2019-01-15T00:11:14.362Z,980.05
2019-01-15T00:12:14.367Z,980.12
2019-01-15T00:13:14.438Z,980.03
2019-01-15T00:14:14.353Z,980.02
2019-01-15T00:15:14.305Z,979.96
2019-01-15T00:16:14.293Z,980.01
2019-01-15T00:17:14.304Z,980.08
2019-01-15T00:18:14.287Z,980.09
2019-01-15T00:19:14.293Z,980.15
2019-01-15T00:20:14.246Z,980.09
2019-01-15T00:21:14.266Z,980.08
2019-01-15T00:22:14.231Z,980.08
2019-01-15T00:23:14.230Z,980.07
2019-01-15T00:24:14.202Z,980.11
2019-01-15T00:25:14.202Z,980.09
2019-01-15T00:26:14.176Z,980.13
2019-01-15T00:27:14.175Z,980.16
2019-01-15T00:28:14.178Z,980.19
2019-01-15T00:29:14.154Z,980.15
2019-01-15T00:30:14.131Z,980.13
2019-01-15T00:31:14.126Z,980.10
2019-01-15T00:32:14.173Z,980.06
2019-01-15T00:33:14.134Z,980.04
2019-01-15T00:34:14.094Z,980.08
2019-01-15T00:35:14.075Z,980.07
2019-01-15T00:36:14.079Z,980.05
2019-01-15T00:37:14.088Z,980.10
2019-01-15T00:38:14.057Z,980.11
2019-01-15T00:39:14.033Z,980.18
2019-01-15T00:40:14.018Z,980.16
2019-01-15T00:41:14.139Z,980.18
2019-01-15T00:42:15.499Z,980.14
2019-01-15T00:43:14.019Z,980.16
2019-01-15T00:44:13.978Z,980.20
2019-01-15T00:45:13.967Z,980.24
2019-01-15T00:46:13.966Z,980.20
2019-01-15T00:47:13.966Z,980.21
2019-01-15T00:48:13.963Z,980.19
2019-01-15T00:49:13.916Z,980.24
2019-01-15T00:50:13.901Z,980.32
2019-01-15T00:51:13.960Z,980.28
2019-01-15T00:52:13.895Z,980.26
2019-01-15T00:53:13.883Z,980.29
2019-01-15T00:54:13.863Z,980.29
2019-01-15T00:55:13.848Z,980.29
2019-01-15T00:56:13.841Z,980.28
2019-01-15T00:57:13.819Z,980.25
2019-01-15T00:58:13.853Z,980.31
2019-01-15T00:59:13.807Z,980.33
2019-01-15T01:00:13.799Z,980.38
2019-01-15T01:01:13.782Z,980.40
2019-01-15T01:02:13.772Z,980.40
2019-01-15T01:03:13.764Z,980.42
2019-01-15T01:04:13.749Z,980.38
2019-01-15T01:05:13.735Z,980.41
2019-01-15T01:06:13.720Z,980.38
2019-01-15T01:07:13.714Z,980.47
2019-01-15T01:08:13.712Z,980.48
2019-01-15T01:09:13.703Z,980.49
2019-01-15T01:10:13.691Z,980.53
2019-01-15T01:11:13.675Z,980.49
2019-01-15T01:12:13.660Z,980.51
2019-01-15T01:13:13.689Z,980.56
2019-01-15T01:14:13.660Z,980.56
2019-01-15T01:15:13.615Z,980.59
2019-01-15T01:16:13.611Z,980.57
2019-01-15T01:17:13.628Z,980.57
2019-01-15T01:18:13.581Z,980.58
2019-01-15T01:19:13.612Z,980.59
2019-01-15T01:20:13.572Z,980.57
2019-01-15T01:21:13.557Z,980.59
2019-01-15T01:22:13.566Z,980.61
2019-01-15T01:23:13.531Z,980.62
2019-01-15T01:24:13.534Z,980.71
2019-01-15T01:25:13.497Z,980.70
2019-01-15T01:26:13.505Z,980.69
2019-01-15T01:27:13.479Z,980.67
2019-01-15T01:28:13.476Z,980.64
2019-01-15T01:29:13.467Z,980.68
2019-01-15T01:30:13.449Z,980.67
2019-01-15T01:31:13.456Z,980.74
2019-01-15T01:32:13.437Z,980.70
2019-01-15T01:33:13.414Z,980.71
2019-01-15T01:34:13.412Z,980.66
2019-01-15T01:35:13.402Z,980.67
2019-01-15T01:36:13.376Z,980.73
2019-01-15T01:37:13.374Z,980.73
2019-01-15T01:38:13.349Z,980.80
2019-01-15T01:39:13.370Z,980.78
2019-01-15T01:40:13.358Z,980.74
2019-01-15T01:41:13.318Z,980.70
2019-01-15T01:42:13.314Z,980.73
2019-01-15T01:43:13.306Z,980.62
2019-01-15T01:44:13.298Z,980.69
2019-01-15T01:45:13.272Z,980.72
2019-01-15T01:46:13.304Z,980.67
2019-01-15T01:47:13.253Z,980.64
2019-01-15T01:48:13.241Z,980.74
2019-01-15T01:49:13.244Z,980.72
2019-01-15T01:50:13.228Z,980.70
2019-01-15T01:51:13.207Z,980.73
2019-01-15T01:52:13.190Z,980.71
2019-01-15T01:53:13.211Z,980.71
2019-01-15T01:54:13.184Z,980.80
2019-01-15T01:55:13.163Z,980.79
2019-01-15T01:56:13.140Z,980.77
2019-01-15T01:57:13.138Z,980.85
2019-01-15T01:58:13.124Z,980.79
2019-01-15T01:59:13.134Z,980.78
2019-01-15T02:00:13.107Z,980.80
2019-01-15T02:01:13.088Z,980.82
2019-01-15T02:02:13.128Z,980.79
2019-01-15T02:03:13.063Z,980.81
2019-01-15T02:04:13.065Z,980.80
2019-01-15T02:05:13.060Z,980.80
2019-01-15T02:06:13.027Z,980.77
2019-01-15T02:07:13.016Z,980.78
2019-01-15T02:08:13.033Z,980.84
2019-01-15T02:09:13.016Z,980.82
2019-01-15T02:10:12.992Z,980.80
2019-01-15T02:11:12.972Z,980.83
2019-01-15T02:12:12.954Z,980.80
2019-01-15T02:13:12.979Z,980.85
2019-01-15T02:14:12.975Z,980.83
2019-01-15T02:15:12.935Z,980.78
2019-01-15T02:16:12.934Z,980.86
2019-01-15T02:17:12.928Z,980.80
2019-01-15T02:18:12.909Z,980.77
2019-01-15T02:19:12.893Z,980.81
2019-01-15T02:20:12.866Z,980.79
2019-01-15T02:21:12.859Z,980.82
2019-01-15T02:22:12.846Z,980.84
2019-01-15T02:23:12.842Z,980.84
2019-01-15T02:24:12.846Z,980.87
2019-01-15T02:25:12.854Z,980.87
2019-01-15T02:26:12.797Z,980.93
2019-01-15T02:27:12.789Z,980.89
2019-01-15T02:28:12.785Z,980.84
2019-01-15T02:29:12.787Z,980.92
2019-01-15T02:30:12.757Z,980.93
2019-01-15T02:31:12.754Z,980.98
2019-01-15T02:32:12.744Z,980.95
2019-01-15T02:33:12.753Z,980.96
2019-01-15T02:34:12.715Z,981.01
2019-01-15T02:35:12.702Z,981.00
2019-01-15T02:36:12.697Z,981.04
2019-01-15T02:37:12.675Z,981.01
2019-01-15T02:38:12.668Z,981.03
2019-01-15T02:39:12.672Z,981.05
2019-01-15T02:40:12.755Z,981.05
2019-01-15T02:41:12.641Z,981.03
2019-01-15T02:42:12.615Z,981.12
2019-01-15T02:43:12.625Z,981.10
2019-01-15T02:44:12.624Z,981.05
2019-01-15T02:45:12.593Z,981.04
2019-01-15T02:46:12.585Z,981.04
2019-01-15T02:47:12.560Z,981.03
2019-01-15T02:48:12.549Z,981.00
2019-01-15T02:49:12.595Z,981.07
2019-01-15T02:50:12.527Z,981.07
2019-01-15T02:51:12.523Z,981.11
2019-01-15T02:52:12.520Z,981.14
2019-01-15T02:53:12.487Z,981.09
2019-01-15T02:54:12.498Z,981.10
2019-01-15T02:55:12.474Z,981.20
2019-01-15T02:56:12.484Z,981.23
2019-01-15T02:57:12.450Z,981.15
2019-01-15T02:58:12.433Z,981.16
2019-01-15T02:59:12.439Z,981.26
2019-01-15T03:00:12.406Z,981.20
2019-01-15T03:01:12.394Z,981.14
2019-01-15T03:02:12.396Z,981.15
2019-01-15T03:03:12.392Z,981.19
2019-01-15T03:04:12.382Z,981.12
2019-01-15T03:05:12.370Z,981.11
2019-01-15T03:06:12.357Z,981.17
2019-01-15T03:07:12.341Z,981.15
2019-01-15T03:08:12.321Z,981.11
2019-01-15T03:09:12.320Z,981.07
2019-01-15T03:10:12.295Z,981.08
2019-01-15T03:11:12.298Z,981.04
2019-01-15T03:12:12.276Z,981.01
2019-01-15T03:13:12.266Z,981.09
2019-01-15T03:14:12.299Z,981.01
2019-01-15T03:15:12.233Z,981.03
2019-01-15T03:16:12.223Z,981.04
2019-01-15T03:17:12.218Z,981.08
2019-01-15T03:18:12.231Z,981.06
2019-01-15T03:19:12.193Z,981.02
2019-01-15T03:20:12.205Z,981.09
2019-01-15T03:21:12.169Z,981.09
2019-01-15T03:22:12.162Z,981.04
2019-01-15T03:23:12.153Z,981.04
2019-01-15T03:24:12.128Z,981.04
2019-01-15T03:25:12.150Z,981.03
2019-01-15T03:26:12.122Z,980.99
2019-01-15T03:27:12.096Z,980.99
2019-01-15T03:28:12.093Z,980.98
2019-01-15T03:29:12.093Z,981.01
2019-01-15T03:30:12.096Z,981.03
2019-01-15T03:31:12.059Z,981.00
2019-01-15T03:32:12.094Z,981.04
2019-01-15T03:33:12.038Z,981.00
2019-01-15T03:34:12.021Z,981.06
2019-01-15T03:35:12.038Z,981.00
2019-01-15T03:36:12.049Z,980.98
2019-01-15T03:37:11.992Z,980.93
2019-01-15T03:38:11.969Z,980.90
2019-01-15T03:39:11.958Z,980.92
2019-01-15T03:40:11.967Z,980.99
2019-01-15T03:41:11.974Z,980.98
2019-01-15T03:42:11.931Z,981.01
2019-01-15T03:43:11.912Z,981.02
2019-01-15T03:44:11.900Z,981.06
2019-01-15T03:45:11.914Z,981.06
2019-01-15T03:46:11.876Z,981.04
2019-01-15T03:47:11.909Z,981.01
2019-01-15T03:48:11.859Z,981.03
2019-01-15T03:49:11.846Z,981.00
2019-01-15T03:50:11.849Z,981.01
2019-01-15T03:51:11.821Z,981.00
2019-01-15T03:52:11.807Z,980.98
2019-01-15T03:53:11.822Z,981.00
2019-01-15T03:54:11.784Z,981.06
2019-01-15T03:55:11.797Z,981.05
2019-01-15T03:56:11.763Z,980.99
2019-01-15T03:57:11.751Z,981.03
2019-01-15T03:58:11.741Z,981.02
2019-01-15T03:59:11.757Z,981.05
2019-01-15T04:00:11.760Z,981.11
2019-01-15T04:01:11.704Z,981.12
2019-01-15T04:02:11.726Z,981.07
2019-01-15T04:03:11.690Z,981.09
2019-01-15T04:04:11.673Z,981.17
2019-01-15T04:05:11.704Z,981.16
2019-01-15T04:06:11.667Z,981.17
2019-01-15T04:07:11.634Z,981.20
2019-01-15T04:08:11.623Z,981.16
2019-01-15T04:09:11.611Z,981.17
2019-01-15T04:10:11.624Z,981.21
2019-01-15T04:11:11.590Z,981.20
2019-01-15T04:12:11.612Z,981.13
2019-01-15T04:13:11.696Z,981.13
2019-01-15T04:14:11.575Z,981.16
2019-01-15T04:15:11.572Z,981.16
2019-01-15T04:16:11.547Z,981.19
2019-01-15T04:17:11.534Z,981.20
2019-01-15T04:18:11.527Z,981.19
2019-01-15T04:19:11.516Z,981.21
2019-01-15T04:20:11.581Z,981.29
2019-01-15T04:21:11.497Z,981.22
2019-01-15T04:22:11.478Z,981.20
2019-01-15T04:23:11.468Z,981.20
2019-01-15T04:24:11.461Z,981.22
2019-01-15T04:25:11.460Z,981.18
2019-01-15T04:26:11.428Z,981.18
2019-01-15T04:27:11.411Z,981.14
2019-01-15T04:28:11.401Z,981.14
2019-01-15T04:29:11.400Z,981.16
2019-01-15T04:30:11.404Z,981.12
2019-01-15T04:31:11.361Z,981.09
2019-01-15T04:32:11.353Z,981.08
2019-01-15T04:33:11.378Z,981.10
2019-01-15T04:34:11.387Z,981.09
2019-01-15T04:35:11.336Z,981.07
2019-01-15T04:36:11.309Z,981.09
2019-01-15T04:37:11.294Z,981.07
2019-01-15T04:38:11.292Z,981.09
2019-01-15T04:39:11.275Z,981.04
2019-01-15T04:40:11.283Z,981.10
2019-01-15T04:41:11.281Z,981.03
2019-01-15T04:42:11.240Z,981.06
2019-01-15T04:43:19.389Z,981.08
2019-01-15T04:44:12.280Z,981.05
2019-01-15T04:45:11.236Z,981.05
2019-01-15T04:46:11.195Z,981.06
2019-01-15T04:47:11.181Z,981.11
2019-01-15T04:48:11.180Z,981.12
2019-01-15T04:49:11.162Z,981.10
2019-01-15T04:50:11.185Z,981.14
2019-01-15T04:51:11.132Z,981.15
2019-01-15T04:52:11.137Z,981.14
2019-01-15T04:53:11.122Z,981.19
2019-01-15T04:54:11.116Z,981.13
2019-01-15T04:55:11.123Z,981.10
2019-01-15T04:56:11.094Z,981.11
2019-01-15T04:57:11.072Z,981.03
2019-01-15T04:58:11.109Z,981.03
2019-01-15T04:59:11.064Z,981.03
2019-01-15T05:00:11.074Z,981.03
2019-01-15T05:01:11.033Z,981.08
2019-01-15T05:02:11.012Z,981.03
2019-01-15T05:03:11.019Z,981.05
2019-01-15T05:04:11.002Z,981.03
2019-01-15T05:05:11.003Z,981.02
2019-01-15T05:06:10.976Z,981.03
2019-01-15T05:07:10.958Z,980.99
2019-01-15T05:08:10.943Z,981.03
2019-01-15T05:09:10.944Z,981.01
2019-01-15T05:10:10.941Z,981.03
2019-01-15T05:11:10.916Z,981.02
2019-01-15T05:12:10.903Z,980.99
2019-01-15T05:13:10.907Z,981.07
2019-01-15T05:14:10.873Z,981.01
2019-01-15T05:15:12.898Z,981.05
2019-01-15T05:16:10.853Z,980.95
2019-01-15T05:17:10.850Z,980.92
2019-01-15T05:18:10.854Z,980.94
2019-01-15T05:19:10.822Z,980.94
2019-01-15T05:20:10.849Z,980.96
2019-01-15T05:21:10.812Z,980.95
2019-01-15T05:22:10.799Z,980.91
2019-01-15T05:23:10.767Z,980.95
2019-01-15T05:24:10.777Z,980.94
2019-01-15T05:25:10.877Z,980.94
2019-01-15T05:26:10.753Z,980.96
2019-01-15T05:27:10.742Z,980.95
2019-01-15T05:28:10.743Z,980.97
2019-01-15T05:29:10.708Z,981.06
2019-01-15T05:30:10.707Z,981.07
2019-01-15T05:31:10.721Z,981.05
2019-01-15T05:32:10.670Z,981.07
2019-01-15T05:33:10.665Z,981.12
2019-01-15T05:34:10.652Z,981.20
2019-01-15T05:35:10.663Z,981.24
2019-01-15T05:36:10.657Z,981.21
2019-01-15T05:37:10.619Z,981.16
2019-01-15T05:38:10.620Z,981.21
2019-01-15T05:39:10.604Z,981.19
2019-01-15T05:40:10.580Z,981.21
2019-01-15T05:41:10.624Z,981.29
2019-01-15T05:42:10.575Z,981.27
2019-01-15T05:43:10.566Z,981.23
2019-01-15T05:44:10.539Z,981.29
2019-01-15T05:45:10.532Z,981.28
2019-01-15T05:46:10.553Z,981.29
2019-01-15T05:47:10.507Z,981.30
2019-01-15T05:48:10.524Z,981.30
2019-01-15T05:49:10.789Z,981.29
2019-01-15T05:50:10.468Z,981.25
2019-01-15T05:51:10.483Z,981.27
2019-01-15T05:52:10.458Z,981.31
2019-01-15T05:53:10.437Z,981.30
2019-01-15T05:54:10.420Z,981.31
2019-01-15T05:55:10.481Z,981.38
2019-01-15T05:56:10.417Z,981.22
2019-01-15T05:57:10.397Z,981.29
2019-01-15T05:58:10.377Z,981.24
2019-01-15T05:59:10.369Z,981.22
2019-01-15T06:00:10.354Z,981.24
2019-01-15T06:01:10.362Z,981.22
2019-01-15T06:02:10.354Z,981.25
2019-01-15T06:03:10.330Z,981.33
2019-01-15T06:04:10.307Z,981.25
2019-01-15T06:05:10.297Z,981.27
2019-01-15T06:06:10.322Z,981.26
2019-01-15T06:07:10.280Z,981.27
2019-01-15T06:08:10.261Z,981.31
2019-01-15T06:09:10.282Z,981.31
2019-01-15T06:10:10.239Z,981.33
2019-01-15T06:11:10.250Z,981.33
2019-01-15T06:12:10.233Z,981.38
2019-01-15T06:13:10.205Z,981.33
2019-01-15T06:14:10.193Z,981.36
2019-01-15T06:15:10.200Z,981.38
2019-01-15T06:16:10.197Z,981.31
2019-01-15T06:17:10.171Z,981.27
2019-01-15T06:18:10.160Z,981.28
2019-01-15T06:19:10.147Z,981.24
2019-01-15T06:20:10.147Z,981.19
2019-01-15T06:21:10.140Z,981.15
2019-01-15T06:22:10.109Z,981.08
2019-01-15T06:23:10.107Z,981.02
2019-01-15T06:24:10.080Z,981.01
2019-01-15T06:25:10.076Z,981.00
2019-01-15T06:26:10.092Z,980.98
2019-01-15T06:27:10.073Z,981.07
2019-01-15T06:28:10.043Z,980.99
2019-01-15T06:29:10.034Z,980.99
2019-01-15T06:30:10.009Z,980.97
2019-01-15T06:31:10.040Z,980.96
2019-01-15T06:32:10.004Z,981.05
2019-01-15T06:33:09.984Z,981.07
2019-01-15T06:34:10.070Z,981.00
2019-01-15T06:35:09.998Z,981.08
2019-01-15T06:36:10.479Z,980.98
2019-01-15T06:37:10.008Z,980.99
2019-01-15T06:38:09.940Z,980.93
2019-01-15T06:39:09.922Z,980.92
2019-01-15T06:40:09.901Z,980.90
2019-01-15T06:41:09.915Z,980.97
2019-01-15T06:42:09.875Z,980.98
2019-01-15T06:43:09.954Z,980.97
2019-01-15T06:44:09.894Z,981.02
2019-01-15T06:45:09.942Z,980.97
2019-01-15T06:46:09.858Z,981.10
2019-01-15T06:47:09.836Z,981.13
2019-01-15T06:48:09.830Z,981.19
2019-01-15T06:49:09.828Z,981.13
2019-01-15T06:50:09.809Z,981.12
2019-01-15T06:51:09.791Z,981.17
2019-01-15T06:52:09.793Z,981.17
2019-01-15T06:53:09.835Z,981.20
2019-01-15T06:54:09.791Z,981.24
2019-01-15T06:55:09.754Z,981.18
2019-01-15T06:56:09.768Z,981.21
2019-01-15T06:57:09.705Z,981.17
2019-01-15T06:58:09.703Z,981.22
2019-01-15T06:59:09.680Z,981.19
2019-01-15T07:00:09.680Z,981.26
2019-01-15T07:01:09.664Z,981.21
2019-01-15T07:02:09.654Z,981.28
2019-01-15T07:03:09.639Z,981.27
2019-01-15T07:04:09.633Z,981.28
2019-01-15T07:05:09.621Z,981.32
2019-01-15T07:06:09.617Z,981.29
2019-01-15T07:07:09.582Z,981.34
2019-01-15T07:08:09.575Z,981.33
2019-01-15T07:09:09.571Z,981.31
2019-01-15T07:10:09.627Z,981.35
2019-01-15T07:11:09.574Z,981.34
2019-01-15T07:12:09.563Z,981.35
2019-01-15T07:13:09.530Z,981.38
2019-01-15T07:14:09.504Z,981.36
2019-01-15T07:15:09.551Z,981.38
2019-01-15T07:16:09.536Z,981.37
2019-01-15T07:17:09.494Z,981.38
2019-01-15T07:18:09.470Z,981.41
2019-01-15T07:19:09.448Z,981.37
2019-01-15T07:20:09.494Z,981.40
2019-01-15T07:21:09.464Z,981.36
2019-01-15T07:22:09.421Z,981.39
2019-01-15T07:23:09.401Z,981.38
2019-01-15T07:24:09.411Z,981.39
2019-01-15T07:25:09.390Z,981.40
2019-01-15T07:26:09.410Z,981.39
2019-01-15T07:27:09.361Z,981.38
2019-01-15T07:28:09.398Z,981.45
2019-01-15T07:29:09.398Z,981.50
2019-01-15T07:30:09.344Z,981.52
2019-01-15T07:31:09.316Z,981.51
2019-01-15T07:32:09.355Z,981.48
2019-01-15T07:33:09.311Z,981.41
2019-01-15T07:34:09.312Z,981.41
2019-01-15T07:35:09.287Z,981.40
2019-01-15T07:36:09.269Z,981.48
2019-01-15T07:37:09.265Z,981.47
2019-01-15T07:38:09.306Z,981.47
2019-01-15T07:39:09.273Z,981.46
2019-01-15T07:40:09.222Z,981.52
2019-01-15T07:41:09.243Z,981.38
2019-01-15T07:42:09.235Z,981.46
2019-01-15T07:43:09.207Z,981.39
2019-01-15T07:44:09.192Z,981.38
2019-01-15T07:45:09.175Z,981.35
2019-01-15T07:46:09.936Z,981.42
2019-01-15T07:47:09.168Z,981.32
2019-01-15T07:48:09.146Z,981.37
2019-01-15T07:49:09.123Z,981.32
2019-01-15T07:50:09.113Z,981.40
2019-01-15T07:51:09.138Z,981.31
2019-01-15T07:52:09.101Z,981.33
2019-01-15T07:53:09.082Z,981.31
2019-01-15T07:54:09.094Z,981.31
2019-01-15T07:55:09.066Z,981.43
2019-01-15T07:56:09.049Z,981.22
2019-01-15T07:57:09.055Z,981.28
2019-01-15T07:58:09.022Z,981.23
2019-01-15T07:59:09.003Z,981.30
2019-01-15T08:00:08.994Z,981.24
2019-01-15T08:01:09.053Z,981.36
2019-01-15T08:02:08.987Z,981.38
2019-01-15T08:03:08.953Z,981.38
2019-01-15T08:04:08.950Z,981.45
2019-01-15T08:05:08.927Z,981.41
2019-01-15T08:06:08.943Z,981.40
2019-01-15T08:07:09.451Z,981.47
2019-01-15T08:08:08.940Z,981.51
2019-01-15T08:09:08.889Z,981.48
2019-01-15T08:10:08.877Z,981.54
2019-01-15T08:11:08.864Z,981.47
2019-01-15T08:12:08.867Z,981.58
2019-01-15T08:13:08.839Z,981.57
2019-01-15T08:14:12.132Z,981.58
2019-01-15T08:15:08.848Z,981.63
2019-01-15T08:16:08.813Z,981.57
2019-01-15T08:17:08.804Z,981.64
2019-01-15T08:18:08.777Z,981.58
2019-01-15T08:19:08.773Z,981.62
2019-01-15T08:20:08.767Z,981.59
2019-01-15T08:21:08.775Z,981.60
2019-01-15T08:22:08.764Z,981.62
2019-01-15T08:23:08.735Z,981.55
2019-01-15T08:24:08.715Z,981.57
2019-01-15T08:25:08.711Z,981.55
2019-01-15T08:26:08.696Z,981.60
2019-01-15T08:27:08.712Z,981.61
2019-01-15T08:28:08.673Z,981.54
2019-01-15T08:29:08.669Z,981.59
2019-01-15T08:30:08.717Z,981.57
2019-01-15T08:31:08.639Z,981.57
2019-01-15T08:32:08.689Z,981.57
2019-01-15T08:33:08.646Z,981.62
2019-01-15T08:34:08.610Z,981.57
2019-01-15T08:35:08.622Z,981.64
2019-01-15T08:36:08.594Z,981.59
2019-01-15T08:37:08.576Z,981.61
2019-01-15T08:38:08.554Z,981.60
2019-01-15T08:39:08.634Z,981.60
2019-01-15T08:40:08.537Z,981.61
2019-01-15T08:41:09.403Z,981.58
2019-01-15T08:42:08.525Z,981.53
2019-01-15T08:43:08.508Z,981.48
2019-01-15T08:44:08.503Z,981.45
2019-01-15T08:45:08.481Z,981.52
2019-01-15T08:46:08.461Z,981.51
2019-01-15T08:47:08.488Z,981.55
2019-01-15T08:48:08.442Z,981.48
2019-01-15T08:49:08.424Z,981.41
2019-01-15T08:50:08.443Z,981.39
2019-01-15T08:51:08.432Z,981.42
2019-01-15T08:52:08.444Z,981.38
2019-01-15T08:53:08.401Z,981.31
2019-01-15T08:54:08.392Z,981.38
2019-01-15T08:55:08.372Z,981.36
2019-01-15T08:56:08.357Z,981.35
2019-01-15T08:57:08.368Z,981.41
2019-01-15T08:58:08.331Z,981.38
2019-01-15T08:59:08.308Z,981.40
2019-01-15T09:00:08.319Z,981.49
2019-01-15T09:01:08.294Z,981.46
2019-01-15T09:02:08.304Z,981.50
2019-01-15T09:03:08.339Z,981.52
2019-01-15T09:04:08.279Z,981.51
2019-01-15T09:05:08.261Z,981.51
2019-01-15T09:06:08.286Z,981.48
2019-01-15T09:07:09.421Z,981.52
2019-01-15T09:08:08.209Z,981.58
2019-01-15T09:09:08.200Z,981.59
2019-01-15T09:10:08.189Z,981.55
2019-01-15T09:11:08.174Z,981.65
2019-01-15T09:12:08.180Z,981.51
2019-01-15T09:13:08.156Z,981.56
2019-01-15T09:14:08.163Z,981.60
2019-01-15T09:15:08.159Z,981.51
2019-01-15T09:16:08.127Z,981.60
2019-01-15T09:17:11.091Z,981.57
2019-01-15T09:18:08.097Z,981.55
2019-01-15T09:19:08.089Z,981.48
2019-01-15T09:20:08.077Z,981.51
2019-01-15T09:21:08.085Z,981.53
2019-01-15T09:22:08.106Z,981.54
2019-01-15T09:23:08.041Z,981.63
2019-01-15T09:24:08.027Z,981.55
2019-01-15T09:25:08.085Z,981.44
2019-01-15T09:26:08.025Z,981.53
2019-01-15T09:27:08.006Z,981.52
2019-01-15T09:28:08.005Z,981.43
2019-01-15T09:29:08.036Z,981.37
2019-01-15T09:30:07.959Z,981.41
2019-01-15T09:31:07.948Z,981.30
2019-01-15T09:32:07.988Z,981.34
2019-01-15T09:33:07.962Z,981.27
2019-01-15T09:34:07.933Z,981.26
2019-01-15T09:35:07.919Z,981.29
2019-01-15T09:36:07.912Z,981.17
2019-01-15T09:37:07.936Z,981.13
2019-01-15T09:38:07.922Z,981.14
2019-01-15T09:39:07.928Z,981.15
2019-01-15T09:40:07.851Z,981.11
2019-01-15T09:41:07.846Z,981.19
2019-01-15T09:42:07.827Z,981.15
2019-01-15T09:43:07.843Z,981.14
2019-01-15T09:44:07.846Z,981.10
2019-01-15T09:45:07.784Z,981.12
2019-01-15T09:46:07.774Z,981.06
2019-01-15T09:47:07.831Z,981.03
2019-01-15T09:48:07.770Z,980.95
2019-01-15T09:49:07.745Z,981.01
2019-01-15T09:50:07.741Z,980.98
2019-01-15T09:51:07.720Z,980.96
2019-01-15T09:52:13.177Z,980.99
2019-01-15T09:53:08.712Z,980.91
2019-01-15T09:54:07.679Z,980.91
2019-01-15T09:55:07.716Z,980.92
2019-01-15T09:56:07.657Z,980.95
2019-01-15T09:57:07.653Z,980.96
2019-01-15T09:58:07.658Z,980.95
2019-01-15T09:59:07.627Z,981.04
2019-01-15T10:00:07.624Z,980.90
2019-01-15T10:01:07.611Z,980.89
2019-01-15T10:02:07.599Z,980.84
2019-01-15T10:03:07.592Z,980.80
2019-01-15T10:04:07.562Z,980.87
2019-01-15T10:05:07.554Z,980.86
2019-01-15T10:06:07.547Z,980.88
2019-01-15T10:07:07.549Z,980.89
2019-01-15T10:08:07.557Z,980.86
2019-01-15T10:09:08.130Z,980.86
2019-01-15T10:10:07.510Z,980.81
2019-01-15T10:11:07.496Z,980.80
2019-01-15T10:12:07.476Z,980.79
2019-01-15T10:13:07.479Z,980.62
2019-01-15T10:14:07.451Z,980.68
2019-01-15T10:15:07.445Z,980.61
2019-01-15T10:16:07.435Z,980.57
2019-01-15T10:17:07.436Z,980.58
2019-01-15T10:18:07.501Z,980.57
2019-01-15T10:19:07.410Z,980.61
2019-01-15T10:20:07.407Z,980.48
2019-01-15T10:21:07.373Z,980.48
2019-01-15T10:22:07.373Z,980.48
2019-01-15T10:23:07.414Z,980.55
2019-01-15T10:24:07.943Z,980.49
2019-01-15T10:25:07.327Z,980.51
2019-01-15T10:26:07.324Z,980.47
2019-01-15T10:27:07.357Z,980.42
2019-01-15T10:28:07.411Z,980.51
2019-01-15T10:29:07.344Z,980.33
2019-01-15T10:30:07.279Z,980.40
2019-01-15T10:31:07.282Z,980.44
2019-01-15T10:32:07.255Z,980.36
2019-01-15T10:33:07.257Z,980.41
2019-01-15T10:34:07.235Z,980.49
2019-01-15T10:35:07.208Z,980.51
2019-01-15T10:36:07.232Z,980.44
2019-01-15T10:37:07.192Z,980.49
2019-01-15T10:38:07.187Z,980.56
2019-01-15T10:39:07.169Z,980.55
2019-01-15T10:40:07.175Z,980.44
2019-01-15T10:41:07.182Z,980.43
2019-01-15T10:42:07.135Z,980.40
2019-01-15T10:43:07.178Z,980.41
2019-01-15T10:44:07.158Z,980.41
2019-01-15T10:45:07.123Z,980.46
2019-01-15T10:46:07.134Z,980.40
2019-01-15T10:47:07.088Z,980.41
2019-01-15T10:48:07.083Z,980.43
2019-01-15T10:49:07.053Z,980.32
2019-01-15T10:50:08.033Z,980.32
2019-01-15T10:51:07.042Z,980.28
2019-01-15T10:52:07.028Z,980.34
2019-01-15T10:53:07.465Z,980.35
2019-01-15T10:54:07.025Z,980.29
2019-01-15T10:55:07.027Z,980.33
2019-01-15T10:56:06.973Z,980.33
2019-01-15T10:57:06.968Z,980.36
2019-01-15T10:58:06.962Z,980.27
2019-01-15T10:59:07.896Z,980.27
2019-01-15T11:00:06.935Z,980.26
2019-01-15T11:01:07.966Z,980.26
2019-01-15T11:02:06.901Z,980.23
2019-01-15T11:03:06.998Z,980.30
2019-01-15T11:04:06.877Z,980.22
2019-01-15T11:05:06.866Z,980.22
2019-01-15T11:06:06.866Z,980.20
2019-01-15T11:07:06.842Z,980.17
2019-01-15T11:08:06.849Z,980.01
2019-01-15T11:09:06.826Z,980.15
2019-01-15T11:10:06.808Z,980.16
2019-01-15T11:11:06.801Z,980.22
2019-01-15T11:12:06.818Z,980.22
2019-01-15T11:13:06.811Z,980.19
2019-01-15T11:14:06.763Z,980.25
2019-01-15T11:15:06.754Z,980.25
2019-01-15T11:16:06.766Z,980.10
2019-01-15T11:17:07.407Z,980.20
2019-01-15T11:18:06.728Z,980.24
2019-01-15T11:19:06.710Z,980.18
2019-01-15T11:20:06.701Z,980.16
2019-01-15T11:21:06.716Z,980.21
2019-01-15T11:22:06.697Z,980.25
2019-01-15T11:23:06.680Z,980.16
2019-01-15T11:24:06.648Z,980.23
2019-01-15T11:25:06.634Z,980.16
2019-01-15T11:26:06.626Z,980.12
2019-01-15T11:27:06.619Z,980.16
2019-01-15T11:28:06.636Z,980.22
2019-01-15T11:29:06.589Z,980.26
2019-01-15T11:30:06.576Z,980.17
2019-01-15T11:31:06.569Z,980.19
2019-01-15T11:32:06.552Z,980.32
2019-01-15T11:33:06.555Z,980.24
2019-01-15T11:34:06.543Z,980.17
2019-01-15T11:35:06.529Z,980.19
2019-01-15T11:36:06.506Z,980.19
2019-01-15T11:37:06.542Z,980.25
2019-01-15T11:38:06.488Z,980.21
2019-01-15T11:39:06.489Z,980.16
2019-01-15T11:40:06.471Z,980.11
2019-01-15T11:41:06.535Z,980.16
2019-01-15T11:42:06.583Z,980.15
2019-01-15T11:43:06.424Z,980.03
2019-01-15T11:44:06.456Z,980.15
2019-01-15T11:45:06.416Z,980.22
2019-01-15T11:46:06.422Z,980.13
2019-01-15T11:47:06.389Z,980.13
2019-01-15T11:48:06.424Z,980.24
2019-01-15T11:49:06.423Z,980.14
2019-01-15T11:50:06.588Z,980.17
2019-01-15T11:51:06.401Z,980.12
2019-01-15T11:52:06.334Z,980.18
2019-01-15T11:53:06.377Z,980.16
2019-01-15T11:54:13.143Z,980.15
2019-01-15T11:55:14.029Z,980.13
2019-01-15T11:56:40.643Z,980.14
2019-01-15T11:58:35.046Z,979.99
2019-01-15T11:59:18.291Z,980.13
2019-01-15T12:00:19.281Z,980.04
2019-01-15T12:01:18.120Z,980.02
2019-01-15T12:02:22.170Z,980.09
2019-01-15T12:03:18.102Z,980.10
2019-01-15T12:04:19.173Z,979.97
2019-01-15T12:05:18.091Z,979.95
2019-01-15T12:06:18.065Z,980.06
2019-01-15T12:07:18.064Z,979.99
2019-01-15T12:08:19.126Z,980.02
2019-01-15T12:09:18.069Z,979.97
2019-01-15T12:10:18.124Z,980.02
2019-01-15T12:11:17.995Z,979.99
2019-01-15T12:12:18.006Z,979.96
2019-01-15T12:13:18.061Z,979.95
2019-01-15T12:14:17.998Z,979.83
2019-01-15T12:15:18.090Z,979.95
2019-01-15T12:16:17.959Z,979.92
2019-01-15T12:17:18.018Z,979.96
2019-01-15T12:18:17.939Z,979.94
2019-01-15T12:19:18.010Z,979.82
2019-01-15T12:20:17.908Z,979.85
2019-01-15T12:21:17.991Z,979.81
2019-01-15T12:22:17.896Z,979.83
2019-01-15T12:23:18.037Z,979.77
2019-01-15T12:24:17.881Z,979.79
2019-01-15T12:25:17.981Z,979.84
2019-01-15T12:26:17.841Z,979.80
2019-01-15T12:27:17.920Z,979.79
2019-01-15T12:28:17.823Z,979.84
2019-01-15T12:29:17.834Z,979.78